sensor_id;sensor_type;location;lat;lon;timestamp;P1;durP1;ratioP1;P2;durP2;ratioP2
21593;SDS011;10959;51.328;7.322;2024-01-15T00:01:49;27.23;;;20.00;;
21593;SDS011;10959;51.328;7.322;2024-01-15T00:04:17;26.80;;;19.67;;
21593;SDS011;10959;51.328;7.322;2024-01-15T00:06:43;26.27;;;20.07;;
21593;SDS011;10959;51.328;7.322;2024-01-15T00:09:10;26.73;;;19.40;;
21593;SDS011;10959;51.328;7.322;2024-01-15T00:11:36;25.30;;;18.63;;
21593;SDS011;10959;51.328;7.322;2024-01-15T00:14:02;34.63;;;22.53;;
21593;SDS011;10959;51.328;7.322;2024-01-15T00:16:29;28.73;;;20.40;;
21593;SDS011;10959;51.328;7.322;2024-01-15T00:18:55;28.13;;;19.60;;
21593;SDS011;10959;51.328;7.322;2024-01-15T00:21:23;29.30;;;19.93;;
21593;SDS011;10959;51.328;7.322;2024-01-15T00:23:49;25.60;;;18.80;;
21593;SDS011;10959;51.328;7.322;2024-01-15T00:26:16;32.03;;;19.33;;
21593;SDS011;10959;51.328;7.322;2024-01-15T00:28:42;33.83;;;21.60;;
21593;SDS011;10959;51.328;7.322;2024-01-15T00:31:09;27.33;;;19.43;;
21593;SDS011;10959;51.328;7.322;2024-01-15T00:33:35;35.50;;;23.10;;
21593;SDS011;10959;51.328;7.322;2024-01-15T00:36:02;30.77;;;20.97;;
21593;SDS011;10959;51.328;7.322;2024-01-15T00:38:30;26.83;;;19.17;;
21593;SDS011;10959;51.328;7.322;2024-01-15T00:40:56;30.10;;;20.27;;
21593;SDS011;10959;51.328;7.322;2024-01-15T00:43:23;26.50;;;19.70;;
21593;SDS011;10959;51.328;7.322;2024-01-15T00:45:49;25.80;;;18.13;;
21593;SDS011;10959;51.328;7.322;2024-01-15T00:48:16;29.60;;;20.40;;
21593;SDS011;10959;51.328;7.322;2024-01-15T00:50:42;27.00;;;18.77;;
21593;SDS011;10959;51.328;7.322;2024-01-15T00:53:09;27.27;;;18.97;;
21593;SDS011;10959;51.328;7.322;2024-01-15T00:55:36;24.63;;;18.50;;
21593;SDS011;10959;51.328;7.322;2024-01-15T00:58:03;27.80;;;19.27;;
21593;SDS011;10959;51.328;7.322;2024-01-15T01:00:29;31.37;;;19.23;;
21593;SDS011;10959;51.328;7.322;2024-01-15T01:02:56;27.87;;;19.83;;
21593;SDS011;10959;51.328;7.322;2024-01-15T01:05:22;24.37;;;19.07;;
21593;SDS011;10959;51.328;7.322;2024-01-15T01:07:49;25.53;;;19.80;;
21593;SDS011;10959;51.328;7.322;2024-01-15T01:10:15;31.97;;;21.13;;
21593;SDS011;10959;51.328;7.322;2024-01-15T01:12:43;24.90;;;18.23;;
21593;SDS011;10959;51.328;7.322;2024-01-15T01:15:09;26.13;;;19.60;;
21593;SDS011;10959;51.328;7.322;2024-01-15T01:17:36;26.50;;;19.30;;
21593;SDS011;10959;51.328;7.322;2024-01-15T01:20:02;34.23;;;21.90;;
21593;SDS011;10959;51.328;7.322;2024-01-15T01:22:31;29.33;;;21.77;;
21593;SDS011;10959;51.328;7.322;2024-01-15T01:24:57;28.50;;;20.43;;
21593;SDS011;10959;51.328;7.322;2024-01-15T01:27:24;29.57;;;20.87;;
21593;SDS011;10959;51.328;7.322;2024-01-15T01:29:52;27.93;;;19.03;;
21593;SDS011;10959;51.328;7.322;2024-01-15T01:32:18;31.53;;;21.13;;
21593;SDS011;10959;51.328;7.322;2024-01-15T01:34:45;30.30;;;20.97;;
21593;SDS011;10959;51.328;7.322;2024-01-15T01:37:11;27.90;;;19.63;;
21593;SDS011;10959;51.328;7.322;2024-01-15T01:39:38;32.13;;;20.83;;
21593;SDS011;10959;51.328;7.322;2024-01-15T01:42:05;31.60;;;22.23;;
21593;SDS011;10959;51.328;7.322;2024-01-15T01:44:31;42.53;;;22.53;;
21593;SDS011;10959;51.328;7.322;2024-01-15T01:46:59;34.70;;;23.53;;
21593;SDS011;10959;51.328;7.322;2024-01-15T01:49:28;34.10;;;23.37;;
21593;SDS011;10959;51.328;7.322;2024-01-15T01:51:55;29.97;;;22.00;;
21593;SDS011;10959;51.328;7.322;2024-01-15T01:54:23;30.43;;;20.60;;
21593;SDS011;10959;51.328;7.322;2024-01-15T01:56:51;29.50;;;21.20;;
21593;SDS011;10959;51.328;7.322;2024-01-15T01:59:18;32.20;;;22.00;;
21593;SDS011;10959;51.328;7.322;2024-01-15T02:01:45;31.87;;;20.70;;
21593;SDS011;10959;51.328;7.322;2024-01-15T02:04:13;32.63;;;21.63;;
21593;SDS011;10959;51.328;7.322;2024-01-15T02:06:40;33.90;;;22.07;;
21593;SDS011;10959;51.328;7.322;2024-01-15T02:09:07;29.43;;;20.13;;
21593;SDS011;10959;51.328;7.322;2024-01-15T02:11:34;32.90;;;21.50;;
21593;SDS011;10959;51.328;7.322;2024-01-15T02:14:01;33.53;;;21.20;;
21593;SDS011;10959;51.328;7.322;2024-01-15T02:16:27;29.20;;;21.57;;
21593;SDS011;10959;51.328;7.322;2024-01-15T02:18:54;30.73;;;20.60;;
21593;SDS011;10959;51.328;7.322;2024-01-15T02:21:22;25.97;;;19.17;;
21593;SDS011;10959;51.328;7.322;2024-01-15T02:23:49;24.20;;;18.83;;
21593;SDS011;10959;51.328;7.322;2024-01-15T02:26:16;30.87;;;19.43;;
21593;SDS011;10959;51.328;7.322;2024-01-15T02:28:43;26.50;;;20.27;;
21593;SDS011;10959;51.328;7.322;2024-01-15T02:31:09;27.53;;;18.77;;
21593;SDS011;10959;51.328;7.322;2024-01-15T02:33:36;30.13;;;20.20;;
21593;SDS011;10959;51.328;7.322;2024-01-15T02:36:02;26.17;;;19.23;;
21593;SDS011;10959;51.328;7.322;2024-01-15T02:38:29;35.47;;;21.90;;
21593;SDS011;10959;51.328;7.322;2024-01-15T02:40:57;27.40;;;19.87;;
21593;SDS011;10959;51.328;7.322;2024-01-15T02:43:23;27.23;;;19.03;;
21593;SDS011;10959;51.328;7.322;2024-01-15T02:45:49;29.53;;;20.37;;
21593;SDS011;10959;51.328;7.322;2024-01-15T02:48:16;32.17;;;21.00;;
21593;SDS011;10959;51.328;7.322;2024-01-15T02:50:42;29.50;;;21.13;;
21593;SDS011;10959;51.328;7.322;2024-01-15T02:53:09;29.60;;;20.10;;
21593;SDS011;10959;51.328;7.322;2024-01-15T02:55:35;26.33;;;18.50;;
21593;SDS011;10959;51.328;7.322;2024-01-15T02:58:03;24.03;;;16.87;;
21593;SDS011;10959;51.328;7.322;2024-01-15T03:00:30;27.43;;;18.87;;
21593;SDS011;10959;51.328;7.322;2024-01-15T03:02:56;26.37;;;18.23;;
21593;SDS011;10959;51.328;7.322;2024-01-15T03:05:23;25.93;;;18.13;;
21593;SDS011;10959;51.328;7.322;2024-01-15T03:07:49;29.13;;;19.70;;
21593;SDS011;10959;51.328;7.322;2024-01-15T03:10:15;25.87;;;17.33;;
21593;SDS011;10959;51.328;7.322;2024-01-15T03:12:42;24.07;;;17.23;;
21593;SDS011;10959;51.328;7.322;2024-01-15T03:15:10;26.73;;;17.90;;
21593;SDS011;10959;51.328;7.322;2024-01-15T03:17:36;24.77;;;17.03;;
21593;SDS011;10959;51.328;7.322;2024-01-15T03:20:03;27.00;;;17.63;;
21593;SDS011;10959;51.328;7.322;2024-01-15T03:22:30;22.43;;;16.07;;
21593;SDS011;10959;51.328;7.322;2024-01-15T03:24:56;22.87;;;15.87;;
21593;SDS011;10959;51.328;7.322;2024-01-15T03:27:23;28.87;;;15.60;;
21593;SDS011;10959;51.328;7.322;2024-01-15T03:29:51;22.70;;;13.93;;
21593;SDS011;10959;51.328;7.322;2024-01-15T03:32:18;22.37;;;15.00;;
21593;SDS011;10959;51.328;7.322;2024-01-15T03:34:45;22.30;;;15.23;;
21593;SDS011;10959;51.328;7.322;2024-01-15T03:37:12;24.30;;;17.37;;
21593;SDS011;10959;51.328;7.322;2024-01-15T03:39:38;20.60;;;15.70;;
21593;SDS011;10959;51.328;7.322;2024-01-15T03:42:05;25.73;;;15.70;;
21593;SDS011;10959;51.328;7.322;2024-01-15T03:44:32;26.50;;;16.90;;
21593;SDS011;10959;51.328;7.322;2024-01-15T03:46:58;19.83;;;14.00;;
21593;SDS011;10959;51.328;7.322;2024-01-15T03:49:27;19.17;;;12.73;;
21593;SDS011;10959;51.328;7.322;2024-01-15T03:51:53;20.17;;;13.97;;
21593;SDS011;10959;51.328;7.322;2024-01-15T03:54:20;17.63;;;12.93;;
21593;SDS011;10959;51.328;7.322;2024-01-15T03:56:46;18.37;;;13.67;;
21593;SDS011;10959;51.328;7.322;2024-01-15T03:59:12;22.63;;;14.80;;
21593;SDS011;10959;51.328;7.322;2024-01-15T04:01:39;22.93;;;12.90;;
21593;SDS011;10959;51.328;7.322;2024-01-15T04:04:05;21.07;;;13.77;;
21593;SDS011;10959;51.328;7.322;2024-01-15T04:06:33;19.10;;;13.23;;
21593;SDS011;10959;51.328;7.322;2024-01-15T04:09:00;21.60;;;14.23;;
21593;SDS011;10959;51.328;7.322;2024-01-15T04:11:26;16.37;;;12.90;;
21593;SDS011;10959;51.328;7.322;2024-01-15T04:13:53;22.27;;;13.27;;
21593;SDS011;10959;51.328;7.322;2024-01-15T04:16:19;19.73;;;13.43;;
21593;SDS011;10959;51.328;7.322;2024-01-15T04:18:45;21.80;;;14.47;;
21593;SDS011;10959;51.328;7.322;2024-01-15T04:21:12;21.17;;;13.50;;
21593;SDS011;10959;51.328;7.322;2024-01-15T04:23:40;24.47;;;13.80;;
21593;SDS011;10959;51.328;7.322;2024-01-15T04:26:06;20.30;;;13.50;;
21593;SDS011;10959;51.328;7.322;2024-01-15T04:28:33;21.73;;;14.43;;
21593;SDS011;10959;51.328;7.322;2024-01-15T04:30:59;19.83;;;13.93;;
21593;SDS011;10959;51.328;7.322;2024-01-15T04:33:25;20.27;;;12.83;;
21593;SDS011;10959;51.328;7.322;2024-01-15T04:35:52;21.57;;;13.77;;
21593;SDS011;10959;51.328;7.322;2024-01-15T04:38:18;19.27;;;13.03;;
21593;SDS011;10959;51.328;7.322;2024-01-15T04:40:46;20.17;;;13.57;;
21593;SDS011;10959;51.328;7.322;2024-01-15T04:43:12;18.17;;;13.13;;
21593;SDS011;10959;51.328;7.322;2024-01-15T04:45:39;19.50;;;14.40;;
21593;SDS011;10959;51.328;7.322;2024-01-15T04:48:05;23.87;;;14.70;;
21593;SDS011;10959;51.328;7.322;2024-01-15T04:50:32;20.40;;;14.03;;
21593;SDS011;10959;51.328;7.322;2024-01-15T04:52:58;19.97;;;14.23;;
21593;SDS011;10959;51.328;7.322;2024-01-15T04:55:25;20.07;;;12.87;;
21593;SDS011;10959;51.328;7.322;2024-01-15T04:57:52;18.60;;;13.17;;
21593;SDS011;10959;51.328;7.322;2024-01-15T05:00:19;20.13;;;12.50;;
21593;SDS011;10959;51.328;7.322;2024-01-15T05:02:45;20.43;;;12.73;;
21593;SDS011;10959;51.328;7.322;2024-01-15T05:05:12;19.40;;;13.87;;
21593;SDS011;10959;51.328;7.322;2024-01-15T05:07:38;21.03;;;13.80;;
21593;SDS011;10959;51.328;7.322;2024-01-15T05:10:05;21.07;;;12.77;;
21593;SDS011;10959;51.328;7.322;2024-01-15T05:12:33;18.30;;;13.53;;
21593;SDS011;10959;51.328;7.322;2024-01-15T05:15:00;20.90;;;13.23;;
21593;SDS011;10959;51.328;7.322;2024-01-15T05:17:27;19.13;;;14.03;;
21593;SDS011;10959;51.328;7.322;2024-01-15T05:19:53;22.77;;;14.63;;
21593;SDS011;10959;51.328;7.322;2024-01-15T05:22:20;18.33;;;13.27;;
21593;SDS011;10959;51.328;7.322;2024-01-15T05:24:46;18.97;;;13.53;;
21593;SDS011;10959;51.328;7.322;2024-01-15T05:27:13;19.00;;;14.13;;
21593;SDS011;10959;51.328;7.322;2024-01-15T05:29:39;19.63;;;14.33;;
21593;SDS011;10959;51.328;7.322;2024-01-15T05:32:07;17.80;;;13.93;;
21593;SDS011;10959;51.328;7.322;2024-01-15T05:34:34;25.17;;;14.57;;
21593;SDS011;10959;51.328;7.322;2024-01-15T05:37:00;29.23;;;14.70;;
21593;SDS011;10959;51.328;7.322;2024-01-15T05:39:26;18.73;;;13.87;;
21593;SDS011;10959;51.328;7.322;2024-01-15T05:41:53;16.60;;;12.80;;
21593;SDS011;10959;51.328;7.322;2024-01-15T05:44:19;19.13;;;13.73;;
21593;SDS011;10959;51.328;7.322;2024-01-15T05:46:46;17.70;;;13.00;;
21593;SDS011;10959;51.328;7.322;2024-01-15T05:49:13;20.13;;;13.23;;
21593;SDS011;10959;51.328;7.322;2024-01-15T05:51:40;18.23;;;12.60;;
21593;SDS011;10959;51.328;7.322;2024-01-15T05:54:06;20.87;;;14.13;;
21593;SDS011;10959;51.328;7.322;2024-01-15T05:56:33;18.00;;;13.20;;
21593;SDS011;10959;51.328;7.322;2024-01-15T05:58:59;18.60;;;11.97;;
21593;SDS011;10959;51.328;7.322;2024-01-15T06:01:25;23.13;;;14.30;;
21593;SDS011;10959;51.328;7.322;2024-01-15T06:03:52;20.83;;;13.20;;
21593;SDS011;10959;51.328;7.322;2024-01-15T06:06:20;17.87;;;12.10;;
21593;SDS011;10959;51.328;7.322;2024-01-15T06:08:46;14.53;;;12.17;;
21593;SDS011;10959;51.328;7.322;2024-01-15T06:11:12;13.87;;;12.37;;
21593;SDS011;10959;51.328;7.322;2024-01-15T06:13:39;17.73;;;11.70;;
21593;SDS011;10959;51.328;7.322;2024-01-15T06:16:11;16.90;;;11.77;;
21593;SDS011;10959;51.328;7.322;2024-01-15T06:18:39;15.93;;;11.53;;
21593;SDS011;10959;51.328;7.322;2024-01-15T06:21:05;16.90;;;11.13;;
21593;SDS011;10959;51.328;7.322;2024-01-15T06:23:33;19.00;;;12.63;;
21593;SDS011;10959;51.328;7.322;2024-01-15T06:25:59;15.97;;;12.57;;
21593;SDS011;10959;51.328;7.322;2024-01-15T06:28:28;18.33;;;13.77;;
21593;SDS011;10959;51.328;7.322;2024-01-15T06:30:55;17.70;;;12.03;;
21593;SDS011;10959;51.328;7.322;2024-01-15T06:33:21;15.00;;;11.37;;
21593;SDS011;10959;51.328;7.322;2024-01-15T06:35:48;12.57;;;10.03;;
21593;SDS011;10959;51.328;7.322;2024-01-15T06:38:14;18.10;;;11.50;;
21593;SDS011;10959;51.328;7.322;2024-01-15T06:40:42;16.97;;;12.00;;
21593;SDS011;10959;51.328;7.322;2024-01-15T06:43:10;18.60;;;12.57;;
21593;SDS011;10959;51.328;7.322;2024-01-15T06:45:36;16.90;;;10.67;;
21593;SDS011;10959;51.328;7.322;2024-01-15T06:48:03;16.73;;;11.33;;
21593;SDS011;10959;51.328;7.322;2024-01-15T06:50:29;12.50;;;10.07;;
21593;SDS011;10959;51.328;7.322;2024-01-15T06:52:56;18.23;;;12.30;;
21593;SDS011;10959;51.328;7.322;2024-01-15T06:55:22;14.93;;;12.53;;
21593;SDS011;10959;51.328;7.322;2024-01-15T06:57:50;16.23;;;11.90;;
21593;SDS011;10959;51.328;7.322;2024-01-15T07:00:17;18.60;;;12.77;;
21593;SDS011;10959;51.328;7.322;2024-01-15T07:02:44;18.37;;;11.90;;
21593;SDS011;10959;51.328;7.322;2024-01-15T07:05:11;17.97;;;12.60;;
21593;SDS011;10959;51.328;7.322;2024-01-15T07:07:37;15.73;;;12.43;;
21593;SDS011;10959;51.328;7.322;2024-01-15T07:10:04;16.67;;;13.57;;
21593;SDS011;10959;51.328;7.322;2024-01-15T07:12:32;13.23;;;10.00;;
21593;SDS011;10959;51.328;7.322;2024-01-15T07:15:00;18.57;;;12.87;;
21593;SDS011;10959;51.328;7.322;2024-01-15T07:17:27;20.20;;;13.70;;
21593;SDS011;10959;51.328;7.322;2024-01-15T07:19:53;20.00;;;15.20;;
21593;SDS011;10959;51.328;7.322;2024-01-15T07:22:19;15.80;;;14.20;;
21593;SDS011;10959;51.328;7.322;2024-01-15T07:24:46;18.87;;;14.77;;
21593;SDS011;10959;51.328;7.322;2024-01-15T07:27:12;17.20;;;14.93;;
21593;SDS011;10959;51.328;7.322;2024-01-15T07:29:39;18.73;;;13.50;;
21593;SDS011;10959;51.328;7.322;2024-01-15T07:32:06;13.77;;;11.30;;
21593;SDS011;10959;51.328;7.322;2024-01-15T07:34:33;12.87;;;10.27;;
21593;SDS011;10959;51.328;7.322;2024-01-15T07:36:59;11.10;;;9.70;;
21593;SDS011;10959;51.328;7.322;2024-01-15T07:39:26;16.20;;;11.67;;
21593;SDS011;10959;51.328;7.322;2024-01-15T07:41:53;12.90;;;9.87;;
21593;SDS011;10959;51.328;7.322;2024-01-15T07:44:20;13.20;;;9.40;;
21593;SDS011;10959;51.328;7.322;2024-01-15T07:46:46;10.20;;;8.43;;
21593;SDS011;10959;51.328;7.322;2024-01-15T07:49:14;8.30;;;7.43;;
21593;SDS011;10959;51.328;7.322;2024-01-15T07:51:41;8.70;;;7.80;;
21593;SDS011;10959;51.328;7.322;2024-01-15T07:54:09;8.60;;;7.10;;
21593;SDS011;10959;51.328;7.322;2024-01-15T07:59:22;9.03;;;6.83;;
21593;SDS011;10959;51.328;7.322;2024-01-15T08:01:48;7.13;;;6.43;;
21593;SDS011;10959;51.328;7.322;2024-01-15T08:04:16;7.07;;;6.20;;
21593;SDS011;10959;51.328;7.322;2024-01-15T08:06:43;7.00;;;6.30;;
21593;SDS011;10959;51.328;7.322;2024-01-15T08:09:10;8.33;;;6.77;;
21593;SDS011;10959;51.328;7.322;2024-01-15T08:11:38;6.73;;;6.13;;
21593;SDS011;10959;51.328;7.322;2024-01-15T08:14:06;6.33;;;5.37;;
21593;SDS011;10959;51.328;7.322;2024-01-15T08:16:32;6.73;;;5.87;;
21593;SDS011;10959;51.328;7.322;2024-01-15T08:18:59;7.80;;;6.83;;
21593;SDS011;10959;51.328;7.322;2024-01-15T08:21:27;11.00;;;7.23;;
21593;SDS011;10959;51.328;7.322;2024-01-15T08:23:54;9.87;;;6.77;;
21593;SDS011;10959;51.328;7.322;2024-01-15T08:26:21;11.23;;;8.00;;
21593;SDS011;10959;51.328;7.322;2024-01-15T08:28:48;8.87;;;7.83;;
21593;SDS011;10959;51.328;7.322;2024-01-15T08:31:14;10.47;;;7.73;;
21593;SDS011;10959;51.328;7.322;2024-01-15T08:33:41;13.37;;;8.63;;
21593;SDS011;10959;51.328;7.322;2024-01-15T08:36:07;8.60;;;7.40;;
21593;SDS011;10959;51.328;7.322;2024-01-15T08:38:36;9.23;;;7.20;;
21593;SDS011;10959;51.328;7.322;2024-01-15T08:41:03;8.47;;;7.67;;
21593;SDS011;10959;51.328;7.322;2024-01-15T08:43:29;8.30;;;7.50;;
21593;SDS011;10959;51.328;7.322;2024-01-15T08:45:56;8.93;;;7.63;;
21593;SDS011;10959;51.328;7.322;2024-01-15T08:48:22;9.60;;;7.97;;
21593;SDS011;10959;51.328;7.322;2024-01-15T08:50:52;10.00;;;8.70;;
21593;SDS011;10959;51.328;7.322;2024-01-15T08:53:19;9.00;;;7.67;;
21593;SDS011;10959;51.328;7.322;2024-01-15T08:55:47;7.63;;;6.83;;
21593;SDS011;10959;51.328;7.322;2024-01-15T08:58:14;8.53;;;7.63;;
21593;SDS011;10959;51.328;7.322;2024-01-15T09:00:41;8.73;;;7.83;;
21593;SDS011;10959;51.328;7.322;2024-01-15T09:03:07;7.57;;;6.77;;
21593;SDS011;10959;51.328;7.322;2024-01-15T09:05:34;8.73;;;7.47;;
21593;SDS011;10959;51.328;7.322;2024-01-15T09:07:59;6.90;;;6.20;;
21593;SDS011;10959;51.328;7.322;2024-01-15T09:10:26;7.23;;;6.33;;
21593;SDS011;10959;51.328;7.322;2024-01-15T09:12:54;7.90;;;6.97;;
21593;SDS011;10959;51.328;7.322;2024-01-15T09:15:20;7.00;;;6.33;;
21593;SDS011;10959;51.328;7.322;2024-01-15T09:17:46;8.50;;;7.33;;
21593;SDS011;10959;51.328;7.322;2024-01-15T09:20:13;9.60;;;6.53;;
21593;SDS011;10959;51.328;7.322;2024-01-15T09:22:39;8.27;;;7.47;;
21593;SDS011;10959;51.328;7.322;2024-01-15T09:25:07;8.00;;;7.23;;
21593;SDS011;10959;51.328;7.322;2024-01-15T09:27:34;7.20;;;6.50;;
21593;SDS011;10959;51.328;7.322;2024-01-15T09:30:02;8.73;;;7.83;;
21593;SDS011;10959;51.328;7.322;2024-01-15T09:32:29;8.30;;;7.50;;
21593;SDS011;10959;51.328;7.322;2024-01-15T09:34:56;6.87;;;6.20;;
21593;SDS011;10959;51.328;7.322;2024-01-15T09:37:22;5.50;;;5.10;;
21593;SDS011;10959;51.328;7.322;2024-01-15T09:39:49;6.10;;;5.40;;
21593;SDS011;10959;51.328;7.322;2024-01-15T09:42:16;5.97;;;5.40;;
21593;SDS011;10959;51.328;7.322;2024-01-15T09:44:43;6.27;;;5.33;;
21593;SDS011;10959;51.328;7.322;2024-01-15T09:47:12;5.83;;;5.33;;
21593;SDS011;10959;51.328;7.322;2024-01-15T09:49:41;6.33;;;5.73;;
21593;SDS011;10959;51.328;7.322;2024-01-15T09:52:07;5.80;;;5.30;;
21593;SDS011;10959;51.328;7.322;2024-01-15T09:54:35;5.37;;;4.87;;
21593;SDS011;10959;51.328;7.322;2024-01-15T09:57:03;5.97;;;5.37;;
21593;SDS011;10959;51.328;7.322;2024-01-15T09:59:31;5.67;;;4.97;;
21593;SDS011;10959;51.328;7.322;2024-01-15T10:01:58;4.67;;;4.27;;
21593;SDS011;10959;51.328;7.322;2024-01-15T10:04:27;4.77;;;4.37;;
21593;SDS011;10959;51.328;7.322;2024-01-15T10:06:53;4.40;;;4.00;;
21593;SDS011;10959;51.328;7.322;2024-01-15T10:09:22;5.20;;;4.70;;
21593;SDS011;10959;51.328;7.322;2024-01-15T10:11:48;5.20;;;4.70;;
21593;SDS011;10959;51.328;7.322;2024-01-15T10:14:15;5.87;;;5.27;;
21593;SDS011;10959;51.328;7.322;2024-01-15T10:16:41;9.60;;;7.00;;
21593;SDS011;10959;51.328;7.322;2024-01-15T10:19:08;7.53;;;6.77;;
21593;SDS011;10959;51.328;7.322;2024-01-15T10:21:36;6.80;;;5.97;;
21593;SDS011;10959;51.328;7.322;2024-01-15T10:24:03;7.60;;;6.70;;
21593;SDS011;10959;51.328;7.322;2024-01-15T10:26:30;7.47;;;6.50;;
21593;SDS011;10959;51.328;7.322;2024-01-15T10:28:58;7.30;;;6.03;;
21593;SDS011;10959;51.328;7.322;2024-01-15T10:31:25;11.10;;;7.23;;
21593;SDS011;10959;51.328;7.322;2024-01-15T10:33:52;6.93;;;6.27;;
21593;SDS011;10959;51.328;7.322;2024-01-15T10:36:18;9.60;;;7.80;;
21593;SDS011;10959;51.328;7.322;2024-01-15T10:38:46;8.67;;;7.63;;
21593;SDS011;10959;51.328;7.322;2024-01-15T10:41:13;8.10;;;7.30;;
21593;SDS011;10959;51.328;7.322;2024-01-15T10:43:39;8.83;;;7.67;;
21593;SDS011;10959;51.328;7.322;2024-01-15T10:46:06;8.90;;;7.83;;
21593;SDS011;10959;51.328;7.322;2024-01-15T10:48:33;7.43;;;6.73;;
21593;SDS011;10959;51.328;7.322;2024-01-15T10:51:00;8.73;;;7.83;;
21593;SDS011;10959;51.328;7.322;2024-01-15T10:53:33;9.23;;;8.10;;
21593;SDS011;10959;51.328;7.322;2024-01-15T10:56:03;10.30;;;9.07;;
21593;SDS011;10959;51.328;7.322;2024-01-15T10:58:31;11.87;;;7.83;;
21593;SDS011;10959;51.328;7.322;2024-01-15T11:01:00;7.97;;;7.27;;
21593;SDS011;10959;51.328;7.322;2024-01-15T11:03:27;8.53;;;7.73;;
21593;SDS011;10959;51.328;7.322;2024-01-15T11:05:54;8.77;;;7.87;;
21593;SDS011;10959;51.328;7.322;2024-01-15T11:08:21;8.87;;;7.57;;
21593;SDS011;10959;51.328;7.322;2024-01-15T11:10:48;12.33;;;9.23;;
21593;SDS011;10959;51.328;7.322;2024-01-15T11:13:20;12.17;;;8.93;;
21593;SDS011;10959;51.328;7.322;2024-01-15T11:15:57;11.80;;;8.87;;
21593;SDS011;10959;51.328;7.322;2024-01-15T11:18:26;8.93;;;8.13;;
21593;SDS011;10959;51.328;7.322;2024-01-15T11:23:49;9.67;;;8.67;;
21593;SDS011;10959;51.328;7.322;2024-01-15T11:26:35;12.63;;;9.47;;
21593;SDS011;10959;51.328;7.322;2024-01-15T11:29:04;10.70;;;9.27;;
21593;SDS011;10959;51.328;7.322;2024-01-15T11:40:37;13.27;;;7.83;;
21593;SDS011;10959;51.328;7.322;2024-01-15T11:43:05;10.03;;;7.20;;
21593;SDS011;10959;51.328;7.322;2024-01-15T11:45:35;9.10;;;7.57;;
21593;SDS011;10959;51.328;7.322;2024-01-15T11:48:09;10.33;;;7.27;;
21593;SDS011;10959;51.328;7.322;2024-01-15T11:50:38;8.03;;;6.53;;
21593;SDS011;10959;51.328;7.322;2024-01-15T11:53:09;8.27;;;7.37;;
21593;SDS011;10959;51.328;7.322;2024-01-15T11:55:44;7.83;;;6.40;;
21593;SDS011;10959;51.328;7.322;2024-01-15T11:58:13;7.17;;;6.47;;
21593;SDS011;10959;51.328;7.322;2024-01-15T12:00:43;10.43;;;6.03;;
21593;SDS011;10959;51.328;7.322;2024-01-15T12:03:10;6.20;;;5.60;;
21593;SDS011;10959;51.328;7.322;2024-01-15T12:05:37;6.23;;;5.00;;
21593;SDS011;10959;51.328;7.322;2024-01-15T12:08:04;6.83;;;5.33;;
21593;SDS011;10959;51.328;7.322;2024-01-15T12:10:35;6.00;;;4.60;;
21593;SDS011;10959;51.328;7.322;2024-01-15T12:13:04;7.70;;;5.07;;
21593;SDS011;10959;51.328;7.322;2024-01-15T12:15:32;5.33;;;4.37;;
21593;SDS011;10959;51.328;7.322;2024-01-15T12:18:00;5.63;;;4.17;;
21593;SDS011;10959;51.328;7.322;2024-01-15T12:20:28;8.43;;;5.57;;
21593;SDS011;10959;51.328;7.322;2024-01-15T12:22:55;7.63;;;6.17;;
21593;SDS011;10959;51.328;7.322;2024-01-15T12:25:22;12.57;;;7.90;;
21593;SDS011;10959;51.328;7.322;2024-01-15T12:27:49;9.40;;;8.23;;
21593;SDS011;10959;51.328;7.322;2024-01-15T12:30:16;7.20;;;6.13;;
21593;SDS011;10959;51.328;7.322;2024-01-15T12:32:43;9.10;;;7.33;;
21593;SDS011;10959;51.328;7.322;2024-01-15T12:35:13;7.67;;;5.70;;
21593;SDS011;10959;51.328;7.322;2024-01-15T12:37:40;6.77;;;5.67;;
21593;SDS011;10959;51.328;7.322;2024-01-15T12:40:08;7.13;;;6.40;;
21593;SDS011;10959;51.328;7.322;2024-01-15T12:42:35;7.10;;;6.27;;
21593;SDS011;10959;51.328;7.322;2024-01-15T12:45:03;9.33;;;8.00;;
21593;SDS011;10959;51.328;7.322;2024-01-15T12:47:31;9.33;;;8.00;;
21593;SDS011;10959;51.328;7.322;2024-01-15T12:49:58;8.93;;;7.17;;
21593;SDS011;10959;51.328;7.322;2024-01-15T12:52:27;9.23;;;6.57;;
21593;SDS011;10959;51.328;7.322;2024-01-15T12:54:55;9.37;;;7.43;;
21593;SDS011;10959;51.328;7.322;2024-01-15T12:57:22;9.13;;;6.43;;
21593;SDS011;10959;51.328;7.322;2024-01-15T12:59:48;11.53;;;8.17;;
21593;SDS011;10959;51.328;7.322;2024-01-15T13:02:16;11.80;;;8.20;;
21593;SDS011;10959;51.328;7.322;2024-01-15T13:04:42;8.23;;;6.93;;
21593;SDS011;10959;51.328;7.322;2024-01-15T13:07:09;9.87;;;6.43;;
21593;SDS011;10959;51.328;7.322;2024-01-15T13:09:36;12.83;;;8.20;;
21593;SDS011;10959;51.328;7.322;2024-01-15T13:12:03;6.90;;;6.17;;
21593;SDS011;10959;51.328;7.322;2024-01-15T13:14:30;9.87;;;7.10;;
21593;SDS011;10959;51.328;7.322;2024-01-15T13:16:57;8.43;;;6.50;;
21593;SDS011;10959;51.328;7.322;2024-01-15T13:19:24;10.00;;;6.60;;
21593;SDS011;10959;51.328;7.322;2024-01-15T13:21:51;7.60;;;6.70;;
21593;SDS011;10959;51.328;7.322;2024-01-15T13:24:18;8.00;;;6.20;;
21593;SDS011;10959;51.328;7.322;2024-01-15T13:26:46;6.70;;;6.10;;
21593;SDS011;10959;51.328;7.322;2024-01-15T13:29:12;7.97;;;5.70;;
21593;SDS011;10959;51.328;7.322;2024-01-15T13:31:39;13.43;;;6.03;;
21593;SDS011;10959;51.328;7.322;2024-01-15T13:34:06;8.43;;;5.77;;
21593;SDS011;10959;51.328;7.322;2024-01-15T13:36:34;6.83;;;5.73;;
21593;SDS011;10959;51.328;7.322;2024-01-15T13:39:00;7.93;;;6.10;;
21593;SDS011;10959;51.328;7.322;2024-01-15T13:41:27;7.40;;;5.83;;
21593;SDS011;10959;51.328;7.322;2024-01-15T13:43:56;6.87;;;5.97;;
21593;SDS011;10959;51.328;7.322;2024-01-15T13:46:23;7.60;;;6.13;;
21593;SDS011;10959;51.328;7.322;2024-01-15T13:48:51;7.93;;;5.90;;
21593;SDS011;10959;51.328;7.322;2024-01-15T13:51:17;8.17;;;6.03;;
21593;SDS011;10959;51.328;7.322;2024-01-15T13:53:44;7.20;;;6.50;;
21593;SDS011;10959;51.328;7.322;2024-01-15T13:56:10;7.83;;;6.30;;
21593;SDS011;10959;51.328;7.322;2024-01-15T13:58:37;9.47;;;6.03;;
21593;SDS011;10959;51.328;7.322;2024-01-15T14:01:05;8.60;;;5.40;;
21593;SDS011;10959;51.328;7.322;2024-01-15T14:03:32;11.20;;;6.47;;
21593;SDS011;10959;51.328;7.322;2024-01-15T14:05:58;6.57;;;5.97;;
21593;SDS011;10959;51.328;7.322;2024-01-15T14:08:25;8.57;;;6.67;;
21593;SDS011;10959;51.328;7.322;2024-01-15T14:10:52;8.60;;;6.57;;
21593;SDS011;10959;51.328;7.322;2024-01-15T14:13:19;10.73;;;7.80;;
21593;SDS011;10959;51.328;7.322;2024-01-15T14:15:46;12.43;;;8.70;;
21593;SDS011;10959;51.328;7.322;2024-01-15T14:18:16;10.80;;;8.10;;
21593;SDS011;10959;51.328;7.322;2024-01-15T14:20:42;10.93;;;7.73;;
21593;SDS011;10959;51.328;7.322;2024-01-15T14:23:09;12.57;;;8.30;;
21593;SDS011;10959;51.328;7.322;2024-01-15T14:25:35;9.73;;;7.53;;
21593;SDS011;10959;51.328;7.322;2024-01-15T14:28:02;8.57;;;7.53;;
21593;SDS011;10959;51.328;7.322;2024-01-15T14:30:28;8.67;;;7.70;;
21593;SDS011;10959;51.328;7.322;2024-01-15T14:32:55;9.33;;;6.97;;
21593;SDS011;10959;51.328;7.322;2024-01-15T14:35:22;8.13;;;7.43;;
21593;SDS011;10959;51.328;7.322;2024-01-15T14:37:49;8.67;;;6.87;;
21593;SDS011;10959;51.328;7.322;2024-01-15T14:40:15;8.50;;;7.73;;
21593;SDS011;10959;51.328;7.322;2024-01-15T14:42:43;8.67;;;6.40;;
21593;SDS011;10959;51.328;7.322;2024-01-15T14:45:10;7.30;;;6.53;;
21593;SDS011;10959;51.328;7.322;2024-01-15T14:47:37;7.93;;;7.10;;